Latest Weather Observations for Esperance Airport

IDW60801

Issued at 3:02 pm WST Wednesday 1 June 2016 (issued every 30 minutes, with the page automatically refreshed every 10 minutes)

About weather observations | Map of weather stations | Latest weather observations for WA | Other Formats
Station Details ID: 009542 Name: ESPERANCE AERO Lat: -33.68 Lon: 121.83 Height: 142.0 m
Data from the previous 72 hours. | See also: Recent months at Esperance Airport
Date/Time
WST
Temp
°C
App
Temp
°C
Dew
Point
Rel
Hum
%
Delta-T
°C
Wind Press
QNH
hPa
Press
MSL
hPa
Rain
since 9 am
mm
Dir
 
Spd
km/h
Gust
km/h
Spd
kts
Gust
kts
01/03:00pm 15.3 11.7 9.7 69 2.9 SSE 19 24 10 13 1023.4 1023.5 0.0
01/02:30pm 15.2 12.0 10.0 71 2.7 SSE 17 28 9 15 1023.2 1023.3 0.0
01/02:00pm 16.2 12.7 8.9 62 3.8 S 17 20 9 11 1023.1 1023.2 0.0
01/01:30pm 16.3 13.3 9.3 63 3.7 SSE 15 24 8 13 1023.2 1023.3 0.0
01/01:00pm 16.6 14.2 7.0 53 4.8 SSE 9 17 5 9 1023.4 1023.5 0.0
01/12:30pm 16.3 13.9 7.0 54 4.6 SSE 9 13 5 7 1023.7 1023.8 0.0
01/12:00pm 16.1 13.8 7.6 57 4.3 SSE 9 17 5 9 1024.1 1024.1 0.0
01/11:30am 15.6 13.3 7.6 59 4.0 SSE 9 15 5 8 1024.4 1024.4 0.0
01/11:00am 15.4 13.2 7.9 61 3.8 SSW 9 17 5 9 1024.9 1024.9 0.0
01/10:30am 14.9 12.3 7.9 63 3.5 SW 11 17 6 9 1025.2 1025.2 0.0
01/10:00am 13.3 11.9 9.7 79 1.8 WSW 7 9 4 5 1025.5 1025.5 0.0
01/09:30am 12.0 10.5 10.7 92 0.7 W 9 13 5 7 1025.6 1025.6 0.0
01/09:00am 10.5 8.8 9.7 95 0.4 WNW 9 11 5 6 1025.5 1025.5 0.2
01/08:30am 7.5 5.4 6.8 95 0.3 NNW 7 9 4 5 1025.4 1025.4 0.2
01/08:00am 7.6 5.6 6.9 95 0.3 NNW 7 9 4 5 1025.2 1025.2 0.2
01/07:30am 6.8 4.6 6.1 95 0.3 NNW 7 9 4 5 1024.9 1024.7 0.2
01/07:09am 6.4 3.7 5.7 95 0.3 NW 9 11 5 6 1024.8 1024.6 0.0
01/07:00am 6.3 3.6 5.6 95 0.3 WNW 9 11 5 6 1024.8 1024.6 0.0
01/06:44am 5.9 3.5 5.2 95 0.3 WNW 7 9 4 5 1024.7 1024.5 0.0
01/06:41am 6.1 3.7 5.4 95 0.3 WNW 7 9 4 5 1024.6 1024.4 0.0
01/06:30am 6.1 3.7 5.4 95 0.3 NW 7 9 4 5 1024.5 1024.3 0.0
01/06:25am 6.2 3.8 5.3 94 0.4 NW 7 9 4 5 1024.4 1024.2 0.0
01/06:00am 6.6 3.9 5.7 94 0.4 N 9 11 5 6 1024.1 1023.9 0.0
01/05:30am 7.3 4.8 6.4 94 0.4 NNE 9 13 5 7 1023.9 1023.7 0.0
01/05:00am 8.6 6.0 7.7 94 0.4 NNE 11 15 6 8 1023.5 1023.4 0.0
01/04:30am 8.6 6.0 7.7 94 0.4 NNE 11 13 6 7 1023.3 1023.2 0.0
01/04:00am 8.7 5.7 7.6 93 0.5 NNE 13 15 7 8 1023.3 1023.2 0.0
01/03:30am 8.5 5.8 7.3 92 0.6 NNE 11 15 6 8 1023.3 1023.2 0.0
01/03:00am 8.3 5.5 6.9 91 0.7 NNE 11 15 6 8 1023.4 1023.3 0.0
01/02:30am 8.6 5.9 7.2 91 0.7 NNE 11 13 6 7 1023.4 1023.3 0.0
01/02:00am 8.2 5.3 6.7 90 0.7 NNE 11 13 6 7 1023.2 1023.1 0.0
01/01:30am 8.7 5.9 6.8 88 0.9 NNE 11 13 6 7 1023.1 1023.0 0.0
01/01:00am 9.2 6.5 7.5 89 0.8 NNE 11 15 6 8 1023.0 1022.9 0.0
01/12:30am 8.7 6.3 7.0 89 0.8 NNE 9 11 5 6 1023.0 1022.9 0.0
01/12:00am 8.6 6.2 6.9 89 0.8 NNE 9 13 5 7 1023.2 1023.1 0.0
 
Date/Time
WST
Temp
°C
App
Temp
°C
Dew
Point
Rel
Hum
%
Delta-T
°C
Wind Press
QNH
hPa
Press
MSL
hPa
Rain
since 9 am
mm
Dir
 
Spd
km/h
Gust
km/h
Spd
kts
Gust
kts
31/11:30pm 8.6 6.1 6.6 87 0.9 NNE 9 11 5 6 1023.4 1023.3 0.0
31/11:00pm 9.2 6.8 6.8 85 1.1 NE 9 11 5 6 1023.4 1023.3 0.0
31/10:30pm 9.6 7.5 6.7 82 1.4 NE 7 13 4 7 1023.3 1023.2 0.0
31/10:00pm 10.1 8.1 7.3 83 1.3 ENE 7 11 4 6 1023.3 1023.2 0.0
31/09:30pm 9.8 7.8 7.1 83 1.3 NE 7 9 4 5 1023.4 1023.3 0.0
31/09:00pm 10.4 8.1 7.3 81 1.5 ENE 9 13 5 7 1023.3 1023.2 0.0
31/08:30pm 10.4 7.3 7.3 81 1.5 ENE 13 15 7 8 1023.1 1023.0 0.0
31/08:00pm 11.1 8.5 7.6 79 1.7 E 11 15 6 8 1023.0 1022.9 0.0
31/07:30pm 11.0 8.4 7.7 80 1.6 E 11 15 6 8 1022.9 1022.8 0.0
31/07:00pm 10.4 7.6 7.1 80 1.6 ESE 11 13 6 7 1022.8 1022.7 0.0
31/06:30pm 10.1 7.4 7.2 82 1.4 ESE 11 13 6 7 1022.7 1022.6 0.0
31/06:00pm 10.6 7.6 7.7 82 1.4 ESE 13 15 7 8 1022.6 1022.5 0.0
31/05:30pm 10.9 8.6 7.6 80 1.6 SE 9 11 5 6 1022.4 1022.3 0.0
31/05:00pm 11.4 8.8 7.9 79 1.7 SSE 11 13 6 7 1022.1 1022.0 0.0
31/04:30pm 12.1 9.1 7.6 74 2.2 SE 13 15 7 8 1021.8 1021.7 0.0
31/04:00pm 13.6 10.9 7.4 66 3.0 SSE 11 13 6 7 1021.6 1021.5 0.0
31/03:30pm 14.5 12.1 7.1 61 3.6 SSE 9 48 5 26 1021.4 1021.3 0.0
31/03:00pm 14.2 11.7 6.6 60 3.7 SSE 9 13 5 7 1021.0 1020.9 0.0
31/02:30pm 16.0 13.1 6.7 54 4.6 SW 11 19 6 10 1021.1 1021.0 0.0
31/02:00pm 16.1 14.1 6.3 52 4.8 WNW 6 13 3 7 1021.1 1021.0 0.0
31/01:30pm 15.5 13.5 6.2 54 4.5 WNW 6 11 3 6 1021.3 1021.2 0.0
31/01:00pm 16.1 14.1 6.3 52 4.8 NNW 6 13 3 7 1021.6 1021.5 0.0
31/12:30pm 15.3 13.1 6.1 54 4.5 WNW 7 15 4 8 1022.0 1021.9 0.0
31/12:00pm 15.2 12.5 5.7 53 4.6 NW 9 15 5 8 1022.1 1022.0 0.0
31/11:30am 14.8 12.2 5.9 55 4.3 WNW 9 15 5 8 1022.5 1022.4 0.0
31/11:00am 14.7 12.0 5.5 54 4.4 NW 9 13 5 7 1022.8 1022.7 0.0
31/10:30am 14.3 11.7 6.2 58 3.9 NW 9 13 5 7 1023.2 1023.1 0.0
31/10:00am 13.6 10.3 6.2 61 3.5 NW 13 17 7 9 1023.4 1023.3 0.0
31/09:30am 13.3 10.6 7.3 67 2.9 NNW 11 13 6 7 1023.5 1023.4 0.0
31/09:00am 11.4 8.2 6.7 73 2.2 N 13 17 7 9 1023.4 1023.3 0.0
31/08:30am 10.1 7.3 7.0 81 1.5 N 11 13 6 7 1023.5 1023.4 0.0
31/08:00am 8.1 5.1 5.9 86 1.0 N 11 15 6 8 1023.3 1023.2 0.0
31/07:30am 6.3 3.0 4.5 88 0.8 N 11 13 6 7 1023.0 1022.9 0.0
31/07:00am 5.0 1.4 3.0 87 0.8 N 11 11 6 6 1022.6 1022.5 0.0
31/06:30am 6.5 4.0 4.5 87 0.9 N 7 9 4 5 1022.3 1022.2 0.0
31/06:00am 6.2 3.4 3.2 81 1.3 N 7 9 4 5 1021.8 1021.7 0.0
31/05:30am 6.0 2.8 3.3 83 1.1 N 9 9 5 5 1021.6 1021.5 0.0
31/05:00am 5.8 2.6 3.1 83 1.1 N 9 9 5 5 1021.5 1021.4 0.0
31/04:30am 5.9 2.7 3.2 83 1.1 N 9 46 5 25 1021.4 1021.3 0.0
31/04:00am 5.9 2.8 3.6 85 1.0 N 9 9 5 5 1021.5 1021.4 0.0
31/03:30am 6.4 3.8 3.2 80 1.3 NNE 6 7 3 4 1021.3 1021.2 0.0
31/03:00am 8.0 5.6 4.4 78 1.6 NNE 6 7 3 4 1021.4 1021.3 0.0
31/02:30am 7.5 5.0 4.5 81 1.3 NNE 7 7 4 4 1021.5 1021.4 0.0
31/02:00am 6.6 4.1 3.9 83 1.2 NNE 6 7 3 4 1021.6 1021.5 0.0
31/01:30am 8.6 6.3 4.6 76 1.8 NE 6 6 3 3 1021.5 1021.4 0.0
31/01:00am 8.1 5.6 3.9 75 1.8 NE 6 7 3 4 1021.5 1021.4 0.0
31/12:30am 9.6 7.2 4.2 69 2.4 ENE 6 7 3 4 1021.4 1021.3 0.0
31/12:00am 11.1 9.5 4.3 63 3.1 N 2 7 1 4 1021.7 1021.6 0.0
 
Date/Time
WST
Temp
°C
App
Temp
°C
Dew
Point
Rel
Hum
%
Delta-T
°C
Wind Press
QNH
hPa
Press
MSL
hPa
Rain
since 9 am
mm
Dir
 
Spd
km/h
Gust
km/h
Spd
kts
Gust
kts
30/11:30pm 11.3 10.1 4.7 64 3.0 CALM 0 6 0 3 1022.1 1022.0 0.0
30/11:00pm 10.8 9.8 5.8 71 2.3 CALM 0 6 0 3 1022.1 1022.0 0.0
30/10:30pm 10.7 9.8 6.1 73 2.2 CALM 0 0 0 0 1022.2 1022.1 0.0
30/10:00pm 10.9 9.6 6.1 72 2.2 WNW 2 7 1 4 1022.0 1021.9 0.0
30/09:30pm 10.5 9.8 6.8 78 1.8 CALM 0 0 0 0 1022.1 1022.0 0.0
30/09:00pm 10.8 10.1 6.9 77 1.9 CALM 0 0 0 0 1022.1 1022.0 0.0
30/08:30pm 11.1 10.4 6.8 75 2.1 CALM 0 0 0 0 1022.3 1022.2 0.0
30/08:00pm 11.3 9.3 6.4 72 2.3 SSW 6 7 3 4 1022.2 1022.1 0.0
30/07:30pm 11.7 9.6 6.0 68 2.7 SSW 6 9 3 5 1022.2 1022.1 0.0
30/07:00pm 11.5 10.9 7.2 75 2.1 CALM 0 0 0 0 1022.0 1021.9 0.0
30/06:30pm 11.6 10.5 7.1 74 2.2 S 2 6 1 3 1021.7 1021.6 0.0
30/06:00pm 11.8 9.9 6.9 72 2.3 SSE 6 6 3 3 1021.3 1021.2 0.0
30/05:30pm 12.0 10.4 6.5 69 2.6 SSE 4 6 2 3 1021.2 1021.1 0.0
30/05:00pm 12.1 9.9 6.4 68 2.7 SSE 7 11 4 6 1020.7 1020.6 0.0
30/04:30pm 12.6 10.0 6.2 65 3.1 S 9 13 5 7 1020.6 1020.5 0.0
30/04:00pm 13.0 10.3 5.4 60 3.6 SSE 9 11 5 6 1020.5 1020.4 0.0
30/03:30pm 13.2 10.2 6.1 62 3.4 SSE 11 15 6 8 1020.3 1020.1 0.0
30/03:00pm 13.5 9.7 5.9 60 3.6 S 15 20 8 11 1020.0 1019.8 0.0
30/02:30pm 13.6 10.4 5.0 56 4.0 S 11 15 6 8 1020.0 1019.8 0.0
30/02:00pm 13.7 10.5 5.3 57 3.9 SSW 11 17 6 9 1019.9 1019.7 0.0
30/01:30pm 13.5 9.7 5.7 59 3.7 SSW 15 19 8 10 1019.9 1019.7 0.0
30/01:00pm 13.7 11.1 6.3 61 3.6 SSW 9 13 5 7 1020.0 1019.8 0.0
30/12:30pm 13.2 9.8 5.9 61 3.5 SSE 13 17 7 9 1020.2 1020.0 0.0
30/12:00pm 13.3 9.7 6.6 64 3.2 S 15 22 8 12 1020.2 1020.0 0.0
30/11:30am 13.2 11.1 8.1 71 2.5 S 9 11 5 6 1020.6 1020.5 0.0
30/11:00am 12.8 10.7 8.1 73 2.3 SE 9 15 5 8 1021.1 1021.0 0.0
30/10:30am 12.7 11.2 9.0 78 1.9 S 7 13 4 7 1021.1 1021.0 0.0
30/10:00am 12.0 11.2 11.1 94 0.5 S 6 9 3 5 1021.3 1021.2 0.0
30/09:30am 10.7 9.1 10.1 96 0.3 WSW 9 13 5 7 1021.5 1021.4 0.0
30/09:00am 10.2 7.7 9.6 96 0.3 WNW 13 17 7 9 1021.4 1021.3 1.2
30/08:30am 9.5 7.2 8.9 96 0.3 NW 11 15 6 8 1021.2 1021.1 1.2
30/08:25am 9.6 7.7 9.0 96 0.3 NW 9 11 5 6 1021.1 1021.0 1.2
30/08:00am 9.2 7.6 8.6 96 0.3 WNW 7 11 4 6 1021.0 1020.9 1.2
30/07:59am 9.1 7.4 8.5 96 0.3 WNW 7 11 4 6 1021.0 1020.9 1.2
30/07:30am 8.8 6.7 8.2 96 0.3 NW 9 13 5 7 1020.8 1020.7 1.2
30/07:29am 8.8 6.7 8.2 96 0.3 NW 9 13 5 7 1020.8 1020.7 1.2
30/07:03am 8.8 6.3 8.2 96 0.3 NW 11 15 6 8 1020.6 1020.5 1.2
30/07:00am 8.8 6.3 8.2 96 0.3 NW 11 15 6 8 1020.6 1020.5 1.2
30/06:30am 8.6 6.1 8.0 96 0.3 WNW 11 13 6 7 1020.3 1020.1 1.2
30/06:07am 8.7 6.2 8.1 96 0.3 WNW 11 13 6 7 1020.2 1020.0 1.2
30/06:00am 8.7 6.2 8.1 96 0.3 NW 11 15 6 8 1020.1 1019.9 1.2
30/05:42am 8.7 6.2 8.1 96 0.3 NW 11 13 6 7 1019.9 1019.7 1.2
30/05:30am 8.6 6.1 8.0 96 0.3 NW 11 13 6 7 1019.8 1019.6 1.2
30/05:00am 8.8 6.3 8.2 96 0.3 WNW 11 13 6 7 1019.9 1019.7 1.2
30/04:30am 9.1 6.7 8.5 96 0.3 WNW 11 15 6 8 1019.8 1019.6 1.2
30/04:25am 9.1 6.3 8.5 96 0.3 WNW 13 15 7 8 1019.8 1019.6 1.2
30/04:10am 9.1 5.9 8.5 96 0.3 WNW 15 19 8 10 1019.9 1019.7 1.2
30/04:00am 9.1 6.3 8.5 96 0.3 WNW 13 19 7 10 1019.9 1019.7 1.2
30/03:36am 9.1 5.2 8.5 96 0.3 WNW 19 24 10 13 1020.0 1019.8 1.2
30/03:30am 9.1 5.5 8.5 96 0.3 WNW 17 22 9 12 1020.0 1019.8 1.2
30/03:21am 9.1 5.5 8.5 96 0.3 WNW 17 20 9 11 1020.0 1019.8 1.2
30/03:00am 9.2 5.7 8.6 96 0.3 WNW 17 20 9 11 1019.8 1019.6 1.2
30/02:30am 9.0 6.2 8.4 96 0.3 WNW 13 19 7 10 1019.9 1019.7 1.2
30/02:23am 8.7 5.7 7.9 95 0.4 WNW 13 15 7 8 1019.8 1019.6 1.2
30/02:06am 8.7 6.1 7.9 95 0.4 W 11 15 6 8 1019.8 1019.6 1.2
30/02:00am 8.7 5.7 7.9 95 0.4 W 13 15 7 8 1019.8 1019.6 1.2
30/01:30am 8.1 4.6 7.3 95 0.4 WNW 15 17 8 9 1019.6 1019.4 1.2
30/01:00am 8.3 5.2 7.4 94 0.4 WNW 13 17 7 9 1019.7 1019.5 1.2
30/12:30am 8.2 5.5 7.3 94 0.4 NW 11 13 6 7 1019.9 1019.7 1.2
30/12:00am 8.8 6.6 7.7 93 0.5 NW 9 11 5 6 1020.0 1019.8 1.2
 
Date/Time
WST
Temp
°C
App
Temp
°C
Dew
Point
Rel
Hum
%
Delta-T
°C
Wind Press
QNH
hPa
Press
MSL
hPa
Rain
since 9 am
mm
Dir
 
Spd
km/h
Gust
km/h
Spd
kts
Gust
kts
29/11:59pm 8.8 6.9 7.7 93 0.5 NW 7 11 4 6 1020.0 1019.8 1.2
29/11:39pm 9.5 7.4 8.4 93 0.5 W 9 13 5 7 1020.3 1020.1 0.8
29/11:30pm 9.4 7.3 8.3 93 0.5 WNW 9 9 5 5 1020.2 1020.0 0.8
29/11:00pm 9.4 8.6 8.3 93 0.5 NW 2 6 1 3 1020.2 1020.0 0.8
29/10:30pm 8.9 6.7 7.8 93 0.5 WNW 9 11 5 6 1020.2 1020.0 0.8
29/10:00pm 9.5 7.0 8.4 93 0.5 W 11 15 6 8 1020.2 1020.0 0.8
29/09:30pm 9.1 7.3 8.0 93 0.5 WNW 7 13 4 7 1020.3 1020.1 0.8
29/09:00pm 9.3 6.4 8.2 93 0.5 W 13 15 7 8 1020.1 1019.9 0.8
29/08:30pm 9.4 6.9 8.3 93 0.5 WNW 11 13 6 7 1020.1 1019.9 0.8
29/08:00pm 10.2 7.5 9.0 92 0.6 W 13 17 7 9 1020.0 1019.8 0.8
29/07:30pm 9.2 6.9 7.6 90 0.8 W 9 11 5 6 1019.8 1019.6 0.8
29/07:00pm 9.8 7.7 8.1 89 0.8 WSW 9 13 5 7 1019.5 1019.3 0.8
29/06:30pm 10.5 7.7 8.4 87 1.0 SSW 13 19 7 10 1019.1 1018.9 0.8
29/06:00pm 10.6 6.6 9.0 90 0.8 SSW 20 26 11 14 1018.7 1018.5 0.8
29/05:30pm 11.8 8.0 7.7 76 2.0 SW 17 24 9 13 1018.3 1018.1 0.6
29/05:00pm 11.5 8.0 8.7 83 1.4 SSW 17 28 9 15 1018.2 1018.0 0.6
29/04:30pm 12.4 9.1 7.9 74 2.2 SW 15 20 8 11 1018.1 1017.9 0.6
29/04:00pm 12.9 8.3 8.2 73 2.3 SW 22 32 12 17 1017.9 1017.7 0.6
29/03:30pm 13.6 8.4 7.2 65 3.1 SW 24 30 13 16 1017.7 1017.5 0.6

Other Formats:

Comma delimited format used in spreadsheet applications
http://www.bom.gov.au/fwo/IDW60801/IDW60801.95638.axf

JavaScript Object Notation format (JSON) in row-major order
http://www.bom.gov.au/fwo/IDW60801/IDW60801.95638.json